sensor_id;sensor_type;location;lat;lon;timestamp;temperature;humidity
516;DHT22;244;48.508;9.052;2022-12-07T00:01:06;6.80;33.50
516;DHT22;244;48.508;9.052;2022-12-07T00:06:01;6.50;32.50
516;DHT22;244;48.508;9.052;2022-12-07T00:08:30;6.70;33.90
516;DHT22;244;48.508;9.052;2022-12-07T00:11:01;6.60;33.30
516;DHT22;244;48.508;9.052;2022-12-07T00:13:29;6.60;17.50
516;DHT22;244;48.508;9.052;2022-12-07T00:16:00;6.60;26.60
516;DHT22;244;48.508;9.052;2022-12-07T00:18:27;6.30;26.60
516;DHT22;244;48.508;9.052;2022-12-07T00:20:59;6.60;34.20
516;DHT22;244;48.508;9.052;2022-12-07T00:23:26;6.50;26.80
516;DHT22;244;48.508;9.052;2022-12-07T00:25:54;6.60;17.70
516;DHT22;244;48.508;9.052;2022-12-07T00:28:21;6.80;34.90
516;DHT22;244;48.508;9.052;2022-12-07T00:43:06;6.60;17.90
516;DHT22;244;48.508;9.052;2022-12-07T00:48:00;6.50;27.80
516;DHT22;244;48.508;9.052;2022-12-07T00:55:21;7.20;28.40
516;DHT22;244;48.508;9.052;2022-12-07T00:57:48;6.50;28.00
516;DHT22;244;48.508;9.052;2022-12-07T01:00:17;6.60;36.00
516;DHT22;244;48.508;9.052;2022-12-07T01:02:44;6.60;29.40
516;DHT22;244;48.508;9.052;2022-12-07T01:07:39;6.50;36.30
516;DHT22;244;48.508;9.052;2022-12-07T01:10:07;6.50;34.70
516;DHT22;244;48.508;9.052;2022-12-07T01:15:01;6.40;20.10
516;DHT22;244;48.508;9.052;2022-12-07T01:17:29;6.50;18.00
516;DHT22;244;48.508;9.052;2022-12-07T01:22:24;6.90;19.80
516;DHT22;244;48.508;9.052;2022-12-07T01:34:41;6.50;28.30
516;DHT22;244;48.508;9.052;2022-12-07T01:39:35;6.40;37.10
516;DHT22;244;48.508;9.052;2022-12-07T01:42:02;6.40;36.00
516;DHT22;244;48.508;9.052;2022-12-07T01:44:31;6.40;18.40
516;DHT22;244;48.508;9.052;2022-12-07T01:47:00;6.50;18.50
516;DHT22;244;48.508;9.052;2022-12-07T01:49:30;6.50;18.50
516;DHT22;244;48.508;9.052;2022-12-07T01:52:06;6.40;18.40
516;DHT22;244;48.508;9.052;2022-12-07T01:54:36;6.50;18.50
516;DHT22;244;48.508;9.052;2022-12-07T01:57:05;6.50;18.50
516;DHT22;244;48.508;9.052;2022-12-07T01:59:33;6.50;18.40
516;DHT22;244;48.508;9.052;2022-12-07T02:02:02;6.40;18.30
516;DHT22;244;48.508;9.052;2022-12-07T02:09:26;6.30;28.90
516;DHT22;244;48.508;9.052;2022-12-07T02:11:54;6.40;18.40
516;DHT22;244;48.508;9.052;2022-12-07T02:16:58;6.40;21.50
516;DHT22;244;48.508;9.052;2022-12-07T02:20:00;6.10;35.00
516;DHT22;244;48.508;9.052;2022-12-07T02:25:50;6.50;19.00
516;DHT22;244;48.508;9.052;2022-12-07T02:28:28;6.00;36.30
516;DHT22;244;48.508;9.052;2022-12-07T02:31:01;6.50;28.60
516;DHT22;244;48.508;9.052;2022-12-07T02:33:31;7.30;19.60
516;DHT22;244;48.508;9.052;2022-12-07T02:36:03;6.40;28.50
516;DHT22;244;48.508;9.052;2022-12-07T02:38:43;6.60;18.60
516;DHT22;244;48.508;9.052;2022-12-07T02:41:24;6.60;18.60
516;DHT22;244;48.508;9.052;2022-12-07T02:43:57;6.60;18.60
516;DHT22;244;48.508;9.052;2022-12-07T02:46:31;6.60;18.60
516;DHT22;244;48.508;9.052;2022-12-07T02:49:00;6.50;29.20
516;DHT22;244;48.508;9.052;2022-12-07T02:51:30;6.60;34.10
516;DHT22;244;48.508;9.052;2022-12-07T02:56:31;6.50;18.50
516;DHT22;244;48.508;9.052;2022-12-07T02:59:17;6.50;29.70
516;DHT22;244;48.508;9.052;2022-12-07T03:01:55;6.40;18.60
516;DHT22;244;48.508;9.052;2022-12-07T03:04:35;6.30;18.50
516;DHT22;244;48.508;9.052;2022-12-07T03:07:08;6.20;18.50
516;DHT22;244;48.508;9.052;2022-12-07T03:09:44;6.40;19.20
516;DHT22;244;48.508;9.052;2022-12-07T03:12:18;5.90;18.40
516;DHT22;244;48.508;9.052;2022-12-07T03:14:49;5.80;18.40
516;DHT22;244;48.508;9.052;2022-12-07T03:17:21;5.70;18.60
516;DHT22;244;48.508;9.052;2022-12-07T03:19:54;5.70;18.70
516;DHT22;244;48.508;9.052;2022-12-07T03:24:54;5.60;18.70
516;DHT22;244;48.508;9.052;2022-12-07T03:27:26;5.60;18.80
516;DHT22;244;48.508;9.052;2022-12-07T03:29:58;5.70;18.80
516;DHT22;244;48.508;9.052;2022-12-07T03:32:34;5.70;18.60
516;DHT22;244;48.508;9.052;2022-12-07T03:35:07;5.70;18.40
516;DHT22;244;48.508;9.052;2022-12-07T03:37:39;5.70;18.40
516;DHT22;244;48.508;9.052;2022-12-07T03:40:13;5.60;18.20
516;DHT22;244;48.508;9.052;2022-12-07T03:42:42;5.60;18.20
516;DHT22;244;48.508;9.052;2022-12-07T03:47:43;5.50;18.30
516;DHT22;244;48.508;9.052;2022-12-07T03:50:17;5.50;18.70
516;DHT22;244;48.508;9.052;2022-12-07T03:52:54;5.50;18.40
516;DHT22;244;48.508;9.052;2022-12-07T03:55:26;5.50;18.50
516;DHT22;244;48.508;9.052;2022-12-07T03:57:59;5.40;19.00
516;DHT22;244;48.508;9.052;2022-12-07T04:00:28;5.40;18.70
516;DHT22;244;48.508;9.052;2022-12-07T04:03:12;5.40;19.20
516;DHT22;244;48.508;9.052;2022-12-07T04:05:54;5.40;19.10
516;DHT22;244;48.508;9.052;2022-12-07T04:08:35;5.40;19.30
516;DHT22;244;48.508;9.052;2022-12-07T04:11:09;5.40;19.20
516;DHT22;244;48.508;9.052;2022-12-07T04:13:36;5.40;19.10
516;DHT22;244;48.508;9.052;2022-12-07T04:16:17;5.50;19.10
516;DHT22;244;48.508;9.052;2022-12-07T04:18:45;5.30;19.00
516;DHT22;244;48.508;9.052;2022-12-07T04:21:12;5.30;19.00
516;DHT22;244;48.508;9.052;2022-12-07T04:23:39;5.30;19.70
516;DHT22;244;48.508;9.052;2022-12-07T04:26:06;5.30;19.10
516;DHT22;244;48.508;9.052;2022-12-07T04:28:36;5.30;19.30
516;DHT22;244;48.508;9.052;2022-12-07T04:31:03;5.30;19.90
516;DHT22;244;48.508;9.052;2022-12-07T04:33:30;5.30;19.10
516;DHT22;244;48.508;9.052;2022-12-07T04:35:59;5.30;19.10
516;DHT22;244;48.508;9.052;2022-12-07T04:38:26;5.30;19.20
516;DHT22;244;48.508;9.052;2022-12-07T04:40:53;5.20;19.10
516;DHT22;244;48.508;9.052;2022-12-07T04:43:20;5.20;19.40
516;DHT22;244;48.508;9.052;2022-12-07T04:45:47;5.20;19.30
516;DHT22;244;48.508;9.052;2022-12-07T04:48:16;5.20;19.30
516;DHT22;244;48.508;9.052;2022-12-07T04:50:44;5.20;19.30
516;DHT22;244;48.508;9.052;2022-12-07T04:53:12;5.20;19.30
516;DHT22;244;48.508;9.052;2022-12-07T04:55:39;5.20;19.30
516;DHT22;244;48.508;9.052;2022-12-07T04:58:06;5.10;19.40
516;DHT22;244;48.508;9.052;2022-12-07T05:00:33;5.20;19.60
516;DHT22;244;48.508;9.052;2022-12-07T05:03:00;5.10;19.40
516;DHT22;244;48.508;9.052;2022-12-07T05:05:27;5.10;19.40
516;DHT22;244;48.508;9.052;2022-12-07T05:07:54;5.10;19.50
516;DHT22;244;48.508;9.052;2022-12-07T05:10:38;5.10;19.50
516;DHT22;244;48.508;9.052;2022-12-07T05:13:05;5.00;19.50
516;DHT22;244;48.508;9.052;2022-12-07T05:15:32;5.00;19.60
516;DHT22;244;48.508;9.052;2022-12-07T05:17:59;5.00;19.70
516;DHT22;244;48.508;9.052;2022-12-07T05:20:31;4.90;19.90
516;DHT22;244;48.508;9.052;2022-12-07T05:22:58;4.90;20.10
516;DHT22;244;48.508;9.052;2022-12-07T05:25:25;4.80;19.90
516;DHT22;244;48.508;9.052;2022-12-07T05:27:54;5.00;20.10
516;DHT22;244;48.508;9.052;2022-12-07T05:30:21;4.70;20.00
516;DHT22;244;48.508;9.052;2022-12-07T05:32:49;4.60;20.10
516;DHT22;244;48.508;9.052;2022-12-07T05:35:16;4.60;20.10
516;DHT22;244;48.508;9.052;2022-12-07T05:37:43;4.50;20.00
516;DHT22;244;48.508;9.052;2022-12-07T05:40:11;4.50;20.00
516;DHT22;244;48.508;9.052;2022-12-07T05:42:38;4.40;20.30
516;DHT22;244;48.508;9.052;2022-12-07T05:45:08;4.30;20.00
516;DHT22;244;48.508;9.052;2022-12-07T05:47:35;4.20;20.10
516;DHT22;244;48.508;9.052;2022-12-07T05:50:03;4.10;20.00
516;DHT22;244;48.508;9.052;2022-12-07T05:52:34;4.00;20.10
516;DHT22;244;48.508;9.052;2022-12-07T05:55:00;4.00;20.60
516;DHT22;244;48.508;9.052;2022-12-07T05:57:32;3.90;20.40
516;DHT22;244;48.508;9.052;2022-12-07T05:59:59;3.80;20.40
516;DHT22;244;48.508;9.052;2022-12-07T06:02:26;3.80;20.40
516;DHT22;244;48.508;9.052;2022-12-07T06:04:53;3.70;20.40
516;DHT22;244;48.508;9.052;2022-12-07T06:07:20;3.70;20.30
516;DHT22;244;48.508;9.052;2022-12-07T06:09:47;3.60;20.30
516;DHT22;244;48.508;9.052;2022-12-07T06:12:14;3.50;20.30
516;DHT22;244;48.508;9.052;2022-12-07T06:15:02;3.50;20.60
516;DHT22;244;48.508;9.052;2022-12-07T06:17:32;3.40;20.60
516;DHT22;244;48.508;9.052;2022-12-07T06:19:59;3.40;20.90
516;DHT22;244;48.508;9.052;2022-12-07T06:22:26;3.30;20.80
516;DHT22;244;48.508;9.052;2022-12-07T06:24:56;3.20;20.90
516;DHT22;244;48.508;9.052;2022-12-07T06:27:23;3.20;21.10
516;DHT22;244;48.508;9.052;2022-12-07T06:29:50;3.20;21.10
516;DHT22;244;48.508;9.052;2022-12-07T06:32:17;3.20;21.20
516;DHT22;244;48.508;9.052;2022-12-07T06:34:45;3.10;21.20
516;DHT22;244;48.508;9.052;2022-12-07T06:37:16;3.10;21.20
516;DHT22;244;48.508;9.052;2022-12-07T06:39:43;3.00;21.00
516;DHT22;244;48.508;9.052;2022-12-07T06:42:10;3.00;21.20
516;DHT22;244;48.508;9.052;2022-12-07T06:44:37;3.00;21.30
516;DHT22;244;48.508;9.052;2022-12-07T06:47:04;3.00;21.50
516;DHT22;244;48.508;9.052;2022-12-07T06:49:33;3.00;22.00
516;DHT22;244;48.508;9.052;2022-12-07T06:52:01;3.10;21.40
516;DHT22;244;48.508;9.052;2022-12-07T06:54:30;3.10;21.40
516;DHT22;244;48.508;9.052;2022-12-07T06:56:59;3.10;21.60
516;DHT22;244;48.508;9.052;2022-12-07T06:59:29;3.10;21.40
516;DHT22;244;48.508;9.052;2022-12-07T07:01:56;3.20;21.30
516;DHT22;244;48.508;9.052;2022-12-07T07:04:23;3.30;21.70
516;DHT22;244;48.508;9.052;2022-12-07T07:06:50;3.30;21.30
516;DHT22;244;48.508;9.052;2022-12-07T07:09:19;3.40;21.20
516;DHT22;244;48.508;9.052;2022-12-07T07:11:45;3.50;21.20
516;DHT22;244;48.508;9.052;2022-12-07T07:14:13;3.50;21.10
516;DHT22;244;48.508;9.052;2022-12-07T07:16:47;3.60;21.80
516;DHT22;244;48.508;9.052;2022-12-07T07:19:14;3.70;21.20
516;DHT22;244;48.508;9.052;2022-12-07T07:21:41;3.70;21.10
516;DHT22;244;48.508;9.052;2022-12-07T07:24:08;3.80;21.20
516;DHT22;244;48.508;9.052;2022-12-07T07:26:36;3.80;21.00
516;DHT22;244;48.508;9.052;2022-12-07T07:29:05;3.90;21.00
516;DHT22;244;48.508;9.052;2022-12-07T07:31:53;3.90;20.90
516;DHT22;244;48.508;9.052;2022-12-07T07:34:24;4.00;20.90
516;DHT22;244;48.508;9.052;2022-12-07T07:36:51;4.00;20.80
516;DHT22;244;48.508;9.052;2022-12-07T07:39:18;4.10;20.80
516;DHT22;244;48.508;9.052;2022-12-07T07:42:10;4.10;20.90
516;DHT22;244;48.508;9.052;2022-12-07T07:44:40;4.20;20.80
516;DHT22;244;48.508;9.052;2022-12-07T07:47:07;4.20;20.60
516;DHT22;244;48.508;9.052;2022-12-07T07:49:33;4.30;20.70
516;DHT22;244;48.508;9.052;2022-12-07T07:52:05;4.40;20.70
516;DHT22;244;48.508;9.052;2022-12-07T07:54:38;4.40;20.80
516;DHT22;244;48.508;9.052;2022-12-07T07:57:06;4.40;20.70
516;DHT22;244;48.508;9.052;2022-12-07T07:59:35;4.50;20.80
516;DHT22;244;48.508;9.052;2022-12-07T08:02:05;4.50;20.80
516;DHT22;244;48.508;9.052;2022-12-07T08:04:32;4.60;20.80
516;DHT22;244;48.508;9.052;2022-12-07T08:07:06;4.60;20.80
516;DHT22;244;48.508;9.052;2022-12-07T08:09:36;4.60;20.60
516;DHT22;244;48.508;9.052;2022-12-07T08:12:18;4.70;20.70
516;DHT22;244;48.508;9.052;2022-12-07T08:14:45;4.70;20.60
516;DHT22;244;48.508;9.052;2022-12-07T08:17:12;4.80;20.60
516;DHT22;244;48.508;9.052;2022-12-07T08:19:42;4.90;20.60
516;DHT22;244;48.508;9.052;2022-12-07T08:22:09;4.90;20.50
516;DHT22;244;48.508;9.052;2022-12-07T08:24:38;5.00;20.50
516;DHT22;244;48.508;9.052;2022-12-07T08:27:05;5.10;20.50
516;DHT22;244;48.508;9.052;2022-12-07T08:29:33;5.20;20.40
516;DHT22;244;48.508;9.052;2022-12-07T08:32:00;5.20;20.20
516;DHT22;244;48.508;9.052;2022-12-07T08:34:27;5.30;20.30
516;DHT22;244;48.508;9.052;2022-12-07T08:36:56;5.40;20.30
516;DHT22;244;48.508;9.052;2022-12-07T08:39:23;5.50;20.30
516;DHT22;244;48.508;9.052;2022-12-07T08:41:50;5.50;20.20
516;DHT22;244;48.508;9.052;2022-12-07T08:44:17;5.60;20.10
516;DHT22;244;48.508;9.052;2022-12-07T08:46:47;5.70;20.00
516;DHT22;244;48.508;9.052;2022-12-07T08:49:19;5.70;20.00
516;DHT22;244;48.508;9.052;2022-12-07T08:51:48;5.80;20.00
516;DHT22;244;48.508;9.052;2022-12-07T08:54:17;5.80;19.90
516;DHT22;244;48.508;9.052;2022-12-07T08:56:46;5.90;20.00
516;DHT22;244;48.508;9.052;2022-12-07T08:59:15;6.00;20.00
516;DHT22;244;48.508;9.052;2022-12-07T09:01:46;6.00;20.00
516;DHT22;244;48.508;9.052;2022-12-07T09:04:13;6.10;20.00
516;DHT22;244;48.508;9.052;2022-12-07T09:06:41;6.20;20.10
516;DHT22;244;48.508;9.052;2022-12-07T09:09:10;6.30;20.00
516;DHT22;244;48.508;9.052;2022-12-07T09:11:38;6.40;19.90
516;DHT22;244;48.508;9.052;2022-12-07T09:14:06;6.40;19.80
516;DHT22;244;48.508;9.052;2022-12-07T09:16:33;6.50;19.80
516;DHT22;244;48.508;9.052;2022-12-07T09:19:01;6.60;19.70
516;DHT22;244;48.508;9.052;2022-12-07T09:21:28;6.70;19.70
516;DHT22;244;48.508;9.052;2022-12-07T09:23:55;6.70;19.50
516;DHT22;244;48.508;9.052;2022-12-07T09:26:22;6.80;19.50
516;DHT22;244;48.508;9.052;2022-12-07T09:28:50;6.90;19.40
516;DHT22;244;48.508;9.052;2022-12-07T09:31:17;7.00;19.40
516;DHT22;244;48.508;9.052;2022-12-07T09:33:44;7.00;19.30
516;DHT22;244;48.508;9.052;2022-12-07T09:36:13;7.10;19.20
516;DHT22;244;48.508;9.052;2022-12-07T09:38:40;7.10;19.10
516;DHT22;244;48.508;9.052;2022-12-07T09:41:07;7.20;19.20
516;DHT22;244;48.508;9.052;2022-12-07T09:43:35;7.30;19.30
516;DHT22;244;48.508;9.052;2022-12-07T09:46:03;7.30;19.20
516;DHT22;244;48.508;9.052;2022-12-07T09:48:32;7.40;19.10
516;DHT22;244;48.508;9.052;2022-12-07T09:51:02;7.50;19.00
516;DHT22;244;48.508;9.052;2022-12-07T09:53:34;7.60;18.90
516;DHT22;244;48.508;9.052;2022-12-07T09:56:03;7.60;18.70
516;DHT22;244;48.508;9.052;2022-12-07T09:58:32;7.60;18.70
516;DHT22;244;48.508;9.052;2022-12-07T10:01:01;7.60;18.50
516;DHT22;244;48.508;9.052;2022-12-07T10:03:28;7.60;18.50
516;DHT22;244;48.508;9.052;2022-12-07T10:05:56;7.70;18.50
516;DHT22;244;48.508;9.052;2022-12-07T10:08:24;7.80;18.60
516;DHT22;244;48.508;9.052;2022-12-07T10:10:55;7.90;18.60
516;DHT22;244;48.508;9.052;2022-12-07T10:13:34;7.90;18.60
516;DHT22;244;48.508;9.052;2022-12-07T10:16:02;8.10;18.50
516;DHT22;244;48.508;9.052;2022-12-07T10:18:57;8.10;18.30
516;DHT22;244;48.508;9.052;2022-12-07T10:22:14;8.10;18.10
516;DHT22;244;48.508;9.052;2022-12-07T10:24:42;8.20;18.00
516;DHT22;244;48.508;9.052;2022-12-07T10:27:19;8.30;17.90
516;DHT22;244;48.508;9.052;2022-12-07T10:29:48;8.30;17.90
516;DHT22;244;48.508;9.052;2022-12-07T10:32:30;8.40;17.70
516;DHT22;244;48.508;9.052;2022-12-07T10:35:19;8.50;17.50
516;DHT22;244;48.508;9.052;2022-12-07T10:37:47;8.40;17.50
516;DHT22;244;48.508;9.052;2022-12-07T10:40:27;8.40;17.40
516;DHT22;244;48.508;9.052;2022-12-07T10:43:04;8.50;17.40
516;DHT22;244;48.508;9.052;2022-12-07T10:45:34;8.60;17.20
516;DHT22;244;48.508;9.052;2022-12-07T10:48:06;8.60;17.10
516;DHT22;244;48.508;9.052;2022-12-07T10:50:56;8.70;16.90
516;DHT22;244;48.508;9.052;2022-12-07T10:53:44;8.70;16.80
516;DHT22;244;48.508;9.052;2022-12-07T10:56:47;8.70;16.60
516;DHT22;244;48.508;9.052;2022-12-07T10:59:50;8.70;16.50
516;DHT22;244;48.508;9.052;2022-12-07T11:02:25;8.80;16.40
516;DHT22;244;48.508;9.052;2022-12-07T11:05:06;8.80;16.30
516;DHT22;244;48.508;9.052;2022-12-07T11:07:43;8.80;16.30
516;DHT22;244;48.508;9.052;2022-12-07T11:10:16;8.80;16.20
516;DHT22;244;48.508;9.052;2022-12-07T11:12:57;8.90;16.00
516;DHT22;244;48.508;9.052;2022-12-07T11:15:32;9.00;16.00
516;DHT22;244;48.508;9.052;2022-12-07T11:18:07;9.00;15.80
516;DHT22;244;48.508;9.052;2022-12-07T11:20:41;9.10;16.20
516;DHT22;244;48.508;9.052;2022-12-07T11:23:17;9.10;15.40
516;DHT22;244;48.508;9.052;2022-12-07T11:25:52;9.10;15.30
516;DHT22;244;48.508;9.052;2022-12-07T11:28:31;9.10;15.10
516;DHT22;244;48.508;9.052;2022-12-07T11:31:10;9.10;15.00
516;DHT22;244;48.508;9.052;2022-12-07T11:33:43;9.20;15.10
516;DHT22;244;48.508;9.052;2022-12-07T11:36:26;9.30;15.20
516;DHT22;244;48.508;9.052;2022-12-07T11:39:00;9.30;14.90
516;DHT22;244;48.508;9.052;2022-12-07T11:41:31;9.30;14.70
516;DHT22;244;48.508;9.052;2022-12-07T11:44:06;9.30;14.60
516;DHT22;244;48.508;9.052;2022-12-07T11:46:45;9.40;14.60
516;DHT22;244;48.508;9.052;2022-12-07T11:49:20;9.40;14.50
516;DHT22;244;48.508;9.052;2022-12-07T11:51:50;9.40;14.40
516;DHT22;244;48.508;9.052;2022-12-07T11:54:23;9.40;14.30
516;DHT22;244;48.508;9.052;2022-12-07T11:56:51;9.40;14.30
516;DHT22;244;48.508;9.052;2022-12-07T11:59:25;9.40;14.10
516;DHT22;244;48.508;9.052;2022-12-07T12:01:58;9.40;14.10
516;DHT22;244;48.508;9.052;2022-12-07T12:04:34;9.50;14.10
516;DHT22;244;48.508;9.052;2022-12-07T12:07:06;9.50;14.00
516;DHT22;244;48.508;9.052;2022-12-07T12:09:35;9.50;13.90
516;DHT22;244;48.508;9.052;2022-12-07T12:15:18;9.50;13.70
516;DHT22;244;48.508;9.052;2022-12-07T12:20:56;9.40;13.50
516;DHT22;244;48.508;9.052;2022-12-07T12:23:32;9.40;13.50
516;DHT22;244;48.508;9.052;2022-12-07T12:26:03;9.30;13.40
516;DHT22;244;48.508;9.052;2022-12-07T12:28:35;9.30;13.50
516;DHT22;244;48.508;9.052;2022-12-07T12:31:07;9.40;13.40
516;DHT22;244;48.508;9.052;2022-12-07T12:33:37;9.40;13.30
516;DHT22;244;48.508;9.052;2022-12-07T12:36:20;9.40;13.30
516;DHT22;244;48.508;9.052;2022-12-07T12:38:51;9.40;13.30
516;DHT22;244;48.508;9.052;2022-12-07T12:41:51;9.40;13.20
516;DHT22;244;48.508;9.052;2022-12-07T12:45:04;9.40;13.30
516;DHT22;244;48.508;9.052;2022-12-07T12:47:43;9.40;13.30
516;DHT22;244;48.508;9.052;2022-12-07T12:50:22;9.40;13.20
516;DHT22;244;48.508;9.052;2022-12-07T12:53:11;9.50;13.20
516;DHT22;244;48.508;9.052;2022-12-07T12:56:06;9.40;13.10
516;DHT22;244;48.508;9.052;2022-12-07T12:58:42;9.40;13.00
516;DHT22;244;48.508;9.052;2022-12-07T13:01:42;9.40;13.00
516;DHT22;244;48.508;9.052;2022-12-07T13:07:50;9.40;13.00
516;DHT22;244;48.508;9.052;2022-12-07T13:10:39;9.40;13.00
516;DHT22;244;48.508;9.052;2022-12-07T13:13:31;9.40;13.00
516;DHT22;244;48.508;9.052;2022-12-07T13:16:37;9.40;13.00
516;DHT22;244;48.508;9.052;2022-12-07T13:22:50;9.40;12.90
516;DHT22;244;48.508;9.052;2022-12-07T13:25:31;9.30;12.90
516;DHT22;244;48.508;9.052;2022-12-07T13:28:03;9.30;12.80
516;DHT22;244;48.508;9.052;2022-12-07T13:30:42;9.30;12.80
516;DHT22;244;48.508;9.052;2022-12-07T13:33:17;9.30;12.80
516;DHT22;244;48.508;9.052;2022-12-07T13:35:45;9.20;13.50
516;DHT22;244;48.508;9.052;2022-12-07T13:38:23;9.20;12.90
516;DHT22;244;48.508;9.052;2022-12-07T13:41:10;9.20;12.90
516;DHT22;244;48.508;9.052;2022-12-07T13:43:48;9.10;12.90
516;DHT22;244;48.508;9.052;2022-12-07T13:46:15;9.10;12.90
516;DHT22;244;48.508;9.052;2022-12-07T13:48:46;9.10;12.90
516;DHT22;244;48.508;9.052;2022-12-07T13:51:18;9.00;13.40
516;DHT22;244;48.508;9.052;2022-12-07T13:53:50;9.00;12.90
516;DHT22;244;48.508;9.052;2022-12-07T13:56:21;9.00;12.90
516;DHT22;244;48.508;9.052;2022-12-07T13:58:48;9.00;12.90
516;DHT22;244;48.508;9.052;2022-12-07T14:01:16;9.00;12.80
516;DHT22;244;48.508;9.052;2022-12-07T14:03:44;9.00;12.90
516;DHT22;244;48.508;9.052;2022-12-07T14:06:25;8.90;13.50
516;DHT22;244;48.508;9.052;2022-12-07T14:09:08;8.90;12.90
516;DHT22;244;48.508;9.052;2022-12-07T14:11:37;8.80;12.70
516;DHT22;244;48.508;9.052;2022-12-07T14:14:05;8.70;12.70
516;DHT22;244;48.508;9.052;2022-12-07T14:16:34;8.70;12.70
516;DHT22;244;48.508;9.052;2022-12-07T14:19:04;8.70;12.90
516;DHT22;244;48.508;9.052;2022-12-07T14:21:33;8.70;12.90
516;DHT22;244;48.508;9.052;2022-12-07T14:24:19;8.70;12.90
516;DHT22;244;48.508;9.052;2022-12-07T14:26:48;8.60;12.90
516;DHT22;244;48.508;9.052;2022-12-07T14:29:31;8.60;12.90
516;DHT22;244;48.508;9.052;2022-12-07T14:32:14;8.60;13.60
516;DHT22;244;48.508;9.052;2022-12-07T14:34:53;8.50;13.10
516;DHT22;244;48.508;9.052;2022-12-07T14:37:20;8.40;13.20
516;DHT22;244;48.508;9.052;2022-12-07T14:39:47;8.40;13.20
516;DHT22;244;48.508;9.052;2022-12-07T14:42:16;8.40;13.30
516;DHT22;244;48.508;9.052;2022-12-07T14:44:43;8.30;13.30
516;DHT22;244;48.508;9.052;2022-12-07T14:47:10;8.30;13.30
516;DHT22;244;48.508;9.052;2022-12-07T14:49:37;8.30;13.40
516;DHT22;244;48.508;9.052;2022-12-07T14:52:05;8.20;13.40
516;DHT22;244;48.508;9.052;2022-12-07T14:54:33;8.20;13.40
516;DHT22;244;48.508;9.052;2022-12-07T14:57:00;8.20;13.40
516;DHT22;244;48.508;9.052;2022-12-07T14:59:28;8.20;13.40
516;DHT22;244;48.508;9.052;2022-12-07T15:01:55;8.20;13.50
516;DHT22;244;48.508;9.052;2022-12-07T15:04:22;8.20;13.50
516;DHT22;244;48.508;9.052;2022-12-07T15:06:56;8.10;13.50
516;DHT22;244;48.508;9.052;2022-12-07T15:09:23;8.10;13.50
516;DHT22;244;48.508;9.052;2022-12-07T15:11:50;8.10;13.70
516;DHT22;244;48.508;9.052;2022-12-07T15:14:17;8.00;13.50
516;DHT22;244;48.508;9.052;2022-12-07T15:16:45;7.90;13.50
516;DHT22;244;48.508;9.052;2022-12-07T15:19:14;7.90;13.70
516;DHT22;244;48.508;9.052;2022-12-07T15:21:41;7.80;13.70
516;DHT22;244;48.508;9.052;2022-12-07T15:24:09;7.80;13.80
516;DHT22;244;48.508;9.052;2022-12-07T15:26:38;7.70;13.90
516;DHT22;244;48.508;9.052;2022-12-07T15:29:06;7.70;14.10
516;DHT22;244;48.508;9.052;2022-12-07T15:31:34;7.60;14.10
516;DHT22;244;48.508;9.052;2022-12-07T15:34:03;7.60;14.10
516;DHT22;244;48.508;9.052;2022-12-07T15:36:31;7.50;14.00
516;DHT22;244;48.508;9.052;2022-12-07T15:38:58;7.40;14.00
516;DHT22;244;48.508;9.052;2022-12-07T15:41:25;7.40;14.00
516;DHT22;244;48.508;9.052;2022-12-07T15:43:53;7.40;14.00
516;DHT22;244;48.508;9.052;2022-12-07T15:46:39;7.30;13.90
516;DHT22;244;48.508;9.052;2022-12-07T15:49:11;7.30;13.90
516;DHT22;244;48.508;9.052;2022-12-07T15:51:39;7.30;13.90
516;DHT22;244;48.508;9.052;2022-12-07T15:54:06;7.20;13.80
516;DHT22;244;48.508;9.052;2022-12-07T15:56:33;7.20;13.80
516;DHT22;244;48.508;9.052;2022-12-07T15:59:00;7.20;13.80
516;DHT22;244;48.508;9.052;2022-12-07T16:01:27;7.20;13.80
516;DHT22;244;48.508;9.052;2022-12-07T16:03:54;7.20;13.80
516;DHT22;244;48.508;9.052;2022-12-07T16:06:26;7.20;13.90
516;DHT22;244;48.508;9.052;2022-12-07T16:08:53;7.20;13.80
516;DHT22;244;48.508;9.052;2022-12-07T16:11:20;7.20;13.90
516;DHT22;244;48.508;9.052;2022-12-07T16:13:47;7.20;13.90
516;DHT22;244;48.508;9.052;2022-12-07T16:16:16;7.20;13.90
516;DHT22;244;48.508;9.052;2022-12-07T16:18:45;7.20;13.80
516;DHT22;244;48.508;9.052;2022-12-07T16:21:13;7.20;13.80
516;DHT22;244;48.508;9.052;2022-12-07T16:23:42;7.20;13.80
516;DHT22;244;48.508;9.052;2022-12-07T16:26:11;7.20;14.00
516;DHT22;244;48.508;9.052;2022-12-07T16:28:39;7.20;13.90
516;DHT22;244;48.508;9.052;2022-12-07T16:31:08;7.20;13.80
516;DHT22;244;48.508;9.052;2022-12-07T16:33:37;7.10;13.80
516;DHT22;244;48.508;9.052;2022-12-07T16:36:06;7.20;13.90
516;DHT22;244;48.508;9.052;2022-12-07T16:38:33;7.20;13.80
516;DHT22;244;48.508;9.052;2022-12-07T16:41:02;7.10;13.80
516;DHT22;244;48.508;9.052;2022-12-07T16:43:29;7.10;13.80
516;DHT22;244;48.508;9.052;2022-12-07T16:45:56;7.10;13.80
516;DHT22;244;48.508;9.052;2022-12-07T16:48:23;7.10;13.80
516;DHT22;244;48.508;9.052;2022-12-07T16:50:50;7.00;13.80
516;DHT22;244;48.508;9.052;2022-12-07T16:53:19;7.00;13.80
516;DHT22;244;48.508;9.052;2022-12-07T16:55:46;7.00;13.80
516;DHT22;244;48.508;9.052;2022-12-07T16:58:15;7.00;13.80
516;DHT22;244;48.508;9.052;2022-12-07T17:00:43;7.00;13.80
516;DHT22;244;48.508;9.052;2022-12-07T17:03:11;7.00;14.40
516;DHT22;244;48.508;9.052;2022-12-07T17:05:39;7.00;13.80
516;DHT22;244;48.508;9.052;2022-12-07T17:08:06;6.90;13.80
516;DHT22;244;48.508;9.052;2022-12-07T17:10:34;6.90;13.80
516;DHT22;244;48.508;9.052;2022-12-07T17:13:02;6.90;13.90
516;DHT22;244;48.508;9.052;2022-12-07T17:15:57;6.90;13.80
516;DHT22;244;48.508;9.052;2022-12-07T17:18:23;6.90;13.90
516;DHT22;244;48.508;9.052;2022-12-07T17:20:50;6.80;13.80
516;DHT22;244;48.508;9.052;2022-12-07T17:23:17;6.80;13.90
516;DHT22;244;48.508;9.052;2022-12-07T17:25:45;6.70;14.00
516;DHT22;244;48.508;9.052;2022-12-07T17:28:12;6.70;14.10
516;DHT22;244;48.508;9.052;2022-12-07T17:30:39;6.60;14.10
516;DHT22;244;48.508;9.052;2022-12-07T17:33:08;6.50;14.20
516;DHT22;244;48.508;9.052;2022-12-07T17:35:35;6.50;14.30
516;DHT22;244;48.508;9.052;2022-12-07T17:38:02;6.40;14.40
516;DHT22;244;48.508;9.052;2022-12-07T17:40:29;6.40;14.50
516;DHT22;244;48.508;9.052;2022-12-07T17:42:56;6.40;14.50
516;DHT22;244;48.508;9.052;2022-12-07T17:45:23;6.40;14.50
516;DHT22;244;48.508;9.052;2022-12-07T17:47:50;6.40;14.50
516;DHT22;244;48.508;9.052;2022-12-07T17:50:19;6.40;14.50
516;DHT22;244;48.508;9.052;2022-12-07T17:53:08;6.40;14.60
516;DHT22;244;48.508;9.052;2022-12-07T17:55:35;6.30;14.60
516;DHT22;244;48.508;9.052;2022-12-07T17:58:02;6.20;14.70
516;DHT22;244;48.508;9.052;2022-12-07T18:00:29;6.20;14.80
516;DHT22;244;48.508;9.052;2022-12-07T18:03:01;6.10;14.80
516;DHT22;244;48.508;9.052;2022-12-07T18:05:30;6.00;14.70
516;DHT22;244;48.508;9.052;2022-12-07T18:07:57;6.00;14.80
516;DHT22;244;48.508;9.052;2022-12-07T18:10:23;6.00;14.80
516;DHT22;244;48.508;9.052;2022-12-07T18:12:50;5.90;14.80
516;DHT22;244;48.508;9.052;2022-12-07T18:15:38;5.80;15.50
516;DHT22;244;48.508;9.052;2022-12-07T18:18:05;5.70;14.90
516;DHT22;244;48.508;9.052;2022-12-07T18:20:33;5.60;14.90
516;DHT22;244;48.508;9.052;2022-12-07T18:23:00;5.60;15.10
516;DHT22;244;48.508;9.052;2022-12-07T18:25:27;5.60;15.10
516;DHT22;244;48.508;9.052;2022-12-07T18:27:54;5.60;15.20
516;DHT22;244;48.508;9.052;2022-12-07T18:30:21;5.60;15.20
516;DHT22;244;48.508;9.052;2022-12-07T18:32:48;5.60;15.30